CheckWX is a tool to help pilots better visualize weather data.  It is not intended as a substitute for an official pre-flight weather briefing.

08:40:51 UTC

LQMO TAF
Mostar International Airport
Mostar, Bosnia and Herzegovina
TAF LQMO 240500Z 2406/2506 15004KT CAVOK TX18/2413Z TN02/2506Z PROB40 TEMPO 2412/2416 01010KT

Feb-24@
06:00 UTC

Feb-24 @ 06:00 UTC

Feb-25@
06:00 UTC

Feb-25 @ 06:00 UTC

TAF LQMO 240500Z 2406/2506 15004KT CAVOK TX18/2413Z TN02/2506Z
Wind
  • 150° at 4 KTS
Cloud Levels
  • No significant clouds

Feb-24@
12:00 UTC

Feb-24 @ 12:00 UTC

Feb-24@
16:00 UTC

Feb-24 @ 16:00 UTC

PROB40 TEMPO 2412/2416 01010KT

Temporary - 40% Likelihood

Temporary - 40% Likelihood during this time.

Wind
  • 010° at 10 KTS